Latest Coastal Weather Observations for Cape Ferguson

IDQ60701

Issued at 11:55 am EST Saturday 20 September 2014 (issued every 10 minutes, with the page automatically refreshed every 10 minutes)

About coastal observations | Map of coastal stations | Coastal observations for QLD | Marine services | Other Formats
Station Details ID: 032182 Name: CAPE FERGUSON NTC AWS Lat: -19.28 Lon: 147.06 Height: 0.0 m
Data from the previous 72 hours. | See also: Recent months for locations in Queensland
Date/Time
EST
Temp

°C
Wind Pressure Rain
since 9am
mm
Weather Cloud Vis
km
Sea
Height
m
Swell
Dir
 
Speed
knots
Gust
knots
hPa Trend Height
m
Period
s
Dir
20/11:30am 23.2 ENE 7 9 1016.9 - - - - - - - - -
20/11:00am 23.0 ENE 7 8 1017.4 - - - - - - - - -
20/10:30am 22.9 ESE 4 6 1017.8 - - - - - - - - -
20/10:00am 22.8 ESE 4 6 1018.1 - - - - - - - - -
20/09:30am 22.5 ESE 5 6 1018.5 - - - - - - - - -
20/09:00am 22.2 SE 4 5 1018.6 - - - - - - - - -
20/08:30am 21.9 SE 5 7 1018.5 - - - - - - - - -
20/08:00am 21.9 SSE 2 4 1018.1 - - - - - - - - -
20/07:30am 21.5 W 1 2 1017.8 - - - - - - - - -
20/07:00am 20.7 WNW 3 4 1017.4 - - - - - - - - -
20/06:30am 20.6 W 3 4 1017.2 - - - - - - - - -
20/06:00am 20.5 WNW 2 3 1016.8 - - - - - - - - -
20/05:30am 20.4 NW 2 4 1016.5 - - - - - - - - -
20/05:00am 20.4 WNW 2 3 1016.2 - - - - - - - - -
20/04:30am 21.0 NW 2 4 1015.9 - - - - - - - - -
20/04:00am 21.3 W 1 3 1015.8 - - - - - - - - -
20/03:30am 20.9 WNW 2 3 1016.1 - - - - - - - - -
20/03:00am 21.3 NW 1 4 1016.2 - - - - - - - - -
20/02:30am 22.7 NE 1 3 1016.3 - - - - - - - - -
20/02:00am 22.8 ENE 2 5 1016.6 - - - - - - - - -
20/01:30am 22.9 ENE 6 9 1016.9 - - - - - - - - -
20/01:00am 22.9 ENE 8 10 1017.3 - - - - - - - - -
20/12:30am 22.9 ENE 7 10 1017.5 - - - - - - - - -
20/12:00am 22.9 ENE 9 11 1017.8 - - - - - - - - -
 
Date/Time
EST
Temp

°C
Wind Pressure Rain
since 9am
mm
Weather Cloud Vis
km
Sea
Height
m
Swell
Dir
 
Speed
knots
Gust
knots
hPa Trend Height
m
Period
s
Dir
19/11:30pm 22.8 ENE 8 10 1017.8 - - - - - - - - -
19/11:00pm 22.9 ENE 8 10 1017.7 - - - - - - - - -
19/10:30pm 22.9 ENE 9 11 1017.6 - - - - - - - - -
19/10:00pm 23.0 ENE 8 10 1017.9 - - - - - - - - -
19/09:30pm 22.9 ENE 8 10 1017.8 - - - - - - - - -
19/09:00pm 23.1 ENE 8 11 1017.8 - - - - - - - - -
19/08:30pm 23.1 ENE 8 11 1017.5 - - - - - - - - -
19/08:00pm 23.0 ENE 7 10 1017.2 - - - - - - - - -
19/07:30pm 23.0 ENE 5 10 1016.7 - - - - - - - - -
19/07:00pm 23.0 ENE 5 9 1016.4 - - - - - - - - -
19/06:30pm 23.1 ENE 6 9 1015.9 - - - - - - - - -
19/06:00pm 23.0 ENE 7 9 1015.7 - - - - - - - - -
19/05:30pm 23.0 ENE 8 10 1015.5 - - - - - - - - -
19/05:00pm 23.1 ENE 7 10 1015.4 - - - - - - - - -
19/04:30pm 23.0 ENE 7 9 1015.2 - - - - - - - - -
19/04:00pm 23.0 ENE 8 10 1015.2 - - - - - - - - -
19/03:30pm 23.1 ENE 6 10 1015.2 - - - - - - - - -
19/03:00pm 23.5 ENE 6 9 1015.4 - - - - - - - - -
19/02:30pm 23.5 ENE 5 9 1015.7 - - - - - - - - -
19/02:00pm 23.4 ENE 5 10 1015.9 - - - - - - - - -
19/01:30pm 22.9 ENE 6 9 1016.3 - - - - - - - - -
19/01:00pm 23.6 ENE 5 9 1016.7 - - - - - - - - -
19/12:30pm 22.9 E 5 7 1017.3 - - - - - - - - -
19/12:00pm 22.9 ESE 4 6 1017.6 - - - - - - - - -
19/11:30am 22.9 ESE 4 5 1018.2 - - - - - - - - -
19/11:00am 22.8 ESE 4 6 1018.9 - - - - - - - - -
19/10:30am 22.4 ESE 4 6 1019.2 - - - - - - - - -
19/10:00am 22.3 ESE 4 5 1019.5 - - - - - - - - -
19/09:30am 22.2 ESE 4 6 1019.6 - - - - - - - - -
19/09:00am 22.1 ESE 5 8 1019.6 - - - - - - - - -
19/08:30am 21.9 ESE 6 8 1019.5 - - - - - - - - -
19/08:00am 21.9 SE 6 8 1019.1 - - - - - - - - -
19/07:30am 21.9 SE 6 8 1018.6 - - - - - - - - -
19/07:00am 22.0 SE 7 9 1018.3 - - - - - - - - -
19/06:30am 21.7 SE 8 9 1017.8 - - - - - - - - -
19/06:00am 21.8 SE 8 10 1017.5 - - - - - - - - -
19/05:30am 22.4 SE 7 11 1017.2 - - - - - - - - -
19/05:00am 22.6 ESE 8 9 1016.7 - - - - - - - - -
19/04:30am 22.6 E 8 9 1016.6 - - - - - - - - -
19/04:00am 22.7 E 7 9 1016.4 - - - - - - - - -
19/03:30am 22.5 E 6 9 1016.3 - - - - - - - - -
19/03:00am 22.6 E 7 9 1016.5 - - - - - - - - -
19/02:30am 22.8 E 7 8 1016.7 - - - - - - - - -
19/02:00am 22.8 E 6 8 1017.0 - - - - - - - - -
19/01:30am 22.8 E 7 8 1017.2 - - - - - - - - -
19/01:00am 22.9 E 7 9 1017.5 - - - - - - - - -
19/12:30am 23.1 E 7 10 1017.6 - - - - - - - - -
19/12:00am 23.2 E 8 10 1017.7 - - - - - - - - -
 
Date/Time
EST
Temp

°C
Wind Pressure Rain
since 9am
mm
Weather Cloud Vis
km
Sea
Height
m
Swell
Dir
 
Speed
knots
Gust
knots
hPa Trend Height
m
Period
s
Dir
18/11:30pm 23.4 E 8 10 1017.8 - - - - - - - - -
18/11:00pm 23.4 E 8 10 1017.8 - - - - - - - - -
18/10:30pm 23.8 E 8 9 1017.6 - - - - - - - - -
18/10:00pm 24.0 E 7 9 1017.4 - - - - - - - - -
18/09:30pm 23.8 ENE 4 8 1017.5 - - - - - - - - -
18/09:00pm 22.1 WNW 1 2 1017.1 - - - - - - - - -
18/08:30pm 23.2 N 1 3 1016.8 - - - - - - - - -
18/08:00pm 23.4 NW 1 3 1016.4 - - - - - - - - -
18/07:30pm 24.4 ENE 4 9 1016.1 - - - - - - - - -
18/07:00pm 25.9 SE 2 3 1015.3 - - - - - - - - -
18/06:30pm 25.7 NNW 3 7 1014.9 - - - - - - - - -
18/06:00pm 25.7 NNW 4 8 1014.6 - - - - - - - - -
18/05:30pm 25.4 WNW 3 8 1014.4 - - - - - - - - -
18/05:00pm 25.4 WNW 4 10 1013.9 - - - - - - - - -
18/04:30pm 25.6 WNW 4 11 1013.5 - - - - - - - - -
18/04:00pm 25.0 WSW 4 10 1013.4 - - - - - - - - -
18/03:30pm 25.1 S 3 11 1013.4 - - - - - - - - -
18/03:00pm 25.1 ESE 4 12 1013.5 - - - - - - - - -
18/02:30pm 24.8 ENE 6 15 1014.1 - - - - - - - - -
18/02:00pm 24.8 ENE 5 11 1014.4 - - - - - - - - -
18/01:30pm 24.4 NE 8 15 1015.1 - - - - - - - - -
18/01:00pm 24.0 NNE 11 15 1015.7 - - - - - - - - -
18/12:30pm 24.0 NNE 10 13 1016.1 - - - - - - - - -
18/12:00pm 23.6 NNE 9 12 1016.7 - - - - - - - - -
18/11:30am 23.7 NE 7 11 1017.1 - - - - - - - - -
18/11:00am 23.4 ENE 6 11 1017.6 - - - - - - - - -
18/10:30am 22.6 ENE 7 8 1017.9 - - - - - - - - -
18/10:00am 22.1 E 5 6 1018.1 - - - - - - - - -
18/09:30am 21.9 E 3 4 1018.3 - - - - - - - - -
18/09:00am 21.7 SE 2 3 1018.3 - - - - - - - - -
18/08:30am 20.7 S 3 5 1018.4 - - - - - - - - -
18/08:00am 20.6 SSE 3 5 1018.3 - - - - - - - - -
18/07:30am 20.3 WSW 1 2 1017.9 - - - - - - - - -
18/07:00am 21.2 ESE 1 3 1017.6 - - - - - - - - -
18/06:30am 19.5 NW 2 3 1017.3 - - - - - - - - -
18/06:00am 18.4 WNW 3 3 1017.1 - - - - - - - - -
18/05:30am 18.8 NW 2 3 1016.7 - - - - - - - - -
18/05:00am 19.5 WNW 2 3 1016.3 - - - - - - - - -
18/04:30am 19.2 WNW 2 4 1016.0 - - - - - - - - -
18/04:00am 19.1 WNW 2 3 1016.0 - - - - - - - - -
18/03:30am 19.3 W 2 4 1015.9 - - - - - - - - -
18/03:00am 19.6 W 1 3 1015.9 - - - - - - - - -
18/02:30am 20.6 NW 2 3 1016.1 - - - - - - - - -
18/02:00am 19.8 NW 1 4 1016.5 - - - - - - - - -
18/01:30am 20.7 WNW 1 2 1016.6 - - - - - - - - -
18/01:00am 20.4 NNW 1 3 1016.5 - - - - - - - - -
18/12:30am 20.2 CALM 0 4 1016.6 - - - - - - - - -
18/12:00am 20.4 W 1 4 1016.7 - - - - - - - - -
 
Date/Time
EST
Temp

°C
Wind Pressure Rain
since 9am
mm
Weather Cloud Vis
km
Sea
Height
m
Swell
Dir
 
Speed
knots
Gust
knots
hPa Trend Height
m
Period
s
Dir
17/11:30pm 21.0 CALM 0 2 1016.8 - - - - - - - - -
17/11:00pm 20.6 WNW 1 5 1016.6 - - - - - - - - -
17/10:30pm 20.9 WNW 1 3 1016.4 - - - - - - - - -
17/10:00pm 21.3 CALM 0 2 1016.5 - - - - - - - - -
17/09:30pm 22.1 CALM 0 2 1016.5 - - - - - - - - -
17/09:00pm 22.3 CALM 0 2 1016.4 - - - - - - - - -
17/08:30pm 22.7 CALM 0 1 1016.1 - - - - - - - - -
17/08:00pm 23.6 SSE 1 2 1015.8 - - - - - - - - -
17/07:30pm 23.9 WNW 3 5 1015.6 - - - - - - - - -
17/07:00pm 25.8 NNE 1 3 1015.2 - - - - - - - - -
17/06:30pm 25.6 WNW 4 8 1014.8 - - - - - - - - -
17/06:00pm 25.1 NW 3 8 1014.3 - - - - - - - - -
17/05:30pm 24.9 N 3 10 1013.9 - - - - - - - - -
17/05:00pm 25.1 NW 3 12 1013.6 - - - - - - - - -
17/04:30pm 25.4 NE 3 8 1013.5 - - - - - - - - -
17/04:00pm 25.4 E 4 11 1013.5 - - - - - - - - -
17/03:30pm 25.6 NE 4 14 1013.6 - - - - - - - - -
17/03:00pm 25.7 NE 7 12 1013.9 - - - - - - - - -
17/02:30pm 25.3 NNE 5 11 1014.1 - - - - - - - - -
17/02:00pm 24.4 NE 9 14 1014.5 - - - - - - - - -
17/01:30pm 24.3 NE 10 16 1014.8 - - - - - - - - -
17/01:00pm 24.1 NNE 8 13 1015.4 - - - - - - - - -
17/12:30pm 23.8 NNE 7 10 1015.9 - - - - - - - - -
17/12:00pm 23.6 ENE 6 10 1016.3 - - - - - - - - -

Other Formats:

Comma delimited format used in spreadsheet applications
http://www.bom.gov.au/fwo/IDQ60701/IDQ60701.94297.axf

JavaScript Object Notation format (JSON) in row-major order
http://www.bom.gov.au/fwo/IDQ60701/IDQ60701.94297.json